Airfield :
LOGIN :

Register | Disclaimer

   EN    FR    IT 

 










Legend :    VFR   Marginal VFR   IFR   Intensive IFR   Very Intensive IFR
Visi :
Ceiling :
>= 8 km
>= 3000ft
5 to 8 km
1000 to 3000 ft
1500m to 5 km
500 to 1000 ft
800 to 1500m
200 to 500 ft
< 800m
< 200 ft
Symbols :   Thunderstorms  Fog  Heavy snow  Heavy precipitations  Wind > 20 kt
SIGMETs :     Misc.  Thunderstorms  Icing  Turbulence  Mountain Waves  Volcanic Ashes







- Airport Elevation : 62 ft
- IATA code : TAN


GMTT - Tanger Ibn Batouta

CURRENT METAR :
  • 100100Z 12004KT 8000 NSC 12/10 Q1026 NOSIG

EXPIRED METARs :
  • 100030Z 13006KT 8000 NSC 12/10 Q1026 NOSIG
  • 100000Z 14005KT 8000 NSC 13/10 Q1026 NOSIG
  • 092330Z 11007KT 8000 NSC 13/10 Q1026 NOSIG
  • 092300Z 14006KT 8000 NSC 13/10 Q1026 NOSIG

TAF TAF GMTT
Valid from the 10 at 00:00 until the 11 at 06:00 UTC


092300Z 1000/1106 10005KT 8000 NSC
BECMG 1010/1012 10015KT
PROB40
TEMPO 1023/1106 VRB02KT 3000 BR SCT005 BKN015
No reported NOTAMs for that airfield.



MET'MAP, your aeronautical weather chart ! - Copyright ORBIFLY December 2007 - Disclaimer

ORBIFLY MET'MAP TEAM :

Programming & Development : Alexandra Zaïnal
Concept & Development : Baudouin d'Aumeries
Co-Development & Prog : Marc-Olivier Méhu
Technical & hardware support : Manuel Goepfert

Contact : metmap@orbifly.com




SOURCES & CREDITS :

   NOAA